Data for 03/14/2009

Time Sea-Level Adjusted Pressure Absolute Pressure Temperature Relative Humidity Dew Point   
(mb) (inHg) (mb) (inHg) (C) (F) (%) (C) (F)
00:05 1014 29.94 843 24.89 0.5 32.9 39 -12 10.3
00:10 1014 29.94 843 24.89 1.1 34 37 -12.1 10.3
00:15 1014 29.94 843 24.89 1.2 34.2 37 -11.8 10.8
00:20 1014 29.94 843 24.89 1.1 34.1 37 -12 10.4
00:25 1014 29.94 843 24.89 0.8 33.4 43 -10.5 13.1
00:30 1014 29.94 843 24.89 0.1 32.2 43 -11.1 12
00:35 1014 29.94 843 24.89 0.5 32.8 42 -11 12.2
00:40 1014 29.94 843 24.89 0.6 33.1 40 -11.6 11.1
00:45 1014 29.94 843 24.89 1 33.7 39 -11.5 11.3
00:50 1014 29.94 843 24.89 1.1 34.1 40 -11 12.1
00:55 1014 29.94 843 24.89 0.9 33.7 40 -11.1 12
01:00 1014 29.94 843 24.89 0.8 33.5 41 -11.1 12.1
01:05 1014 29.94 843 24.89 0.9 33.7 39 -11.6 11.2
01:10 1013 29.91 843 24.89 1.4 34.5 36 -12.2 10.1
01:15 1013 29.91 843 24.89 1.6 35 38 -11.2 11.8
01:20 1013 29.91 843 24.89 0.7 33.3 43 -10.4 13.3
01:25 1013 29.91 843 24.89 0.1 32.1 44 -10.7 12.7
01:30 1013 29.91 843 24.89 -0.4 31.3 43 -11.5 11.3
01:35 1013 29.91 842 24.86 0.4 32.6 41 -11.3 11.6
01:40 1013 29.91 842 24.86 0.4 32.8 41 -11.3 11.7
01:45 1013 29.91 842 24.86 0.6 33.2 39 -11.9 10.6
01:50 1013 29.91 842 24.86 0.7 33.2 41 -11.3 11.7
01:55 1013 29.91 842 24.86 0.3 32.5 43 -11 12.2
01:55 1013 29.91 842 24.86 -0 32 43 -11.3 11.7
02:00 1013 29.91 842 24.86 -0.3 31.5 44 -11.1 12
02:05 1013 29.91 842 24.86 -0.4 31.2 45 -11.1 12.1
02:10 1013 29.91 842 24.86 -0.6 30.9 45 -11 12.2
02:15 1013 29.91 842 24.86 -0.5 31.1 43 -11.5 11.3
02:20 1013 29.91 842 24.86 -0.2 31.7 42 -11.5 11.2
02:25 1013 29.91 842 24.86 -0.2 31.7 43 -11.2 11.8
02:30 1013 29.91 842 24.86 -0.2 31.7 43 -11.4 11.4
02:35 1013 29.91 842 24.86 -0.4 31.4 43 -11.4 11.5
02:40 1013 29.91 842 24.86 -0.5 31.1 45 -11.2 11.9
02:45 1013 29.91 842 24.86 -0.4 31.3 43 -11.5 11.4
02:50 1013 29.91 842 24.86 -0.8 30.6 46 -11.1 12.1
02:55 1013 29.91 842 24.86 -1.4 29.5 46 -11.5 11.2
03:00 1013 29.91 842 24.86 -1.2 29.8 45 -11.6 11.1
03:05 1013 29.91 842 24.86 -1.3 29.6 46 -11.5 11.3
03:10 1013 29.91 842 24.86 -1.3 29.7 46 -11.6 11.1
03:15 1013 29.91 842 24.86 -1.1 29.9 44 -11.8 10.8
03:20 1013 29.91 842 24.86 -1 30.3 44 -11.8 10.8
03:25 1012 29.88 842 24.86 -0.8 30.6 43 -11.8 10.8
03:30 1012 29.88 842 24.86 -0.8 30.5 43 -11.8 10.8
03:35 1012 29.88 842 24.86 -0.7 30.7 43 -11.8 10.8
03:40 1012 29.88 842 24.86 -0.8 30.5 42 -12.1 10.2
03:45 1012 29.88 842 24.86 -0.9 30.3 44 -11.7 10.9
03:50 1012 29.88 842 24.86 -1.4 29.5 46 -11.6 11.1
03:55 1012 29.88 841 24.83 -1.7 29 46 -11.8 10.7
04:00 1012 29.88 841 24.83 -1.6 29.1 45 -12.1 10.2
04:05 1012 29.88 841 24.83 -1.4 29.4 45 -12 10.4
04:10 1012 29.88 841 24.83 -1.2 29.8 43 -12.4 9.7
04:15 1012 29.88 841 24.83 -1.1 30.1 42 -12.4 9.7
04:20 1012 29.88 841 24.83 -1 30.1 43 -12 10.4
04:25 1012 29.88 841 24.83 -1.3 29.6 43 -12.3 9.8
04:30 1012 29.88 841 24.83 -1.1 30.1 43 -12.2 10.1
04:35 1012 29.88 841 24.83 -1.1 30 42 -12.4 9.8
04:40 1012 29.88 841 24.83 -1 30.2 42 -12.3 9.9
04:45 1012 29.88 841 24.83 -1.1 30.1 43 -12.2 10
04:50 1012 29.88 841 24.83 -1.5 29.3 45 -11.9 10.5
04:55 1012 29.88 841 24.83 -1.7 28.9 46 -11.8 10.7
05:00 1012 29.88 841 24.83 -2 28.4 46 -12.2 10
05:05 1012 29.88 841 24.83 -1.7 29 45 -12.2 10
05:10 1012 29.88 841 24.83 -1.4 29.5 43 -12.3 9.9
05:15 1012 29.88 841 24.83 -1.5 29.4 43 -12.5 9.5
05:20 1012 29.88 841 24.83 -1.4 29.6 43 -12.3 9.8
05:25 1012 29.88 841 24.83 -1.7 29 44 -12.5 9.5
05:30 1011 29.85 841 24.83 -1.8 28.8 44 -12.5 9.6
05:35 1012 29.88 841 24.83 -1.9 28.6 44 -12.5 9.5
05:40 1012 29.88 841 24.83 -2 28.4 44 -12.7 9.1
05:45 1012 29.88 841 24.83 -1.2 29.8 40 -13 8.5
05:50 1011 29.85 841 24.83 -0.9 30.5 42 -12.3 9.9
05:55 1011 29.85 841 24.83 -1.1 30.1 41 -12.6 9.4
06:00 1011 29.85 841 24.83 -0.7 30.7 40 -12.8 9
06:05 1011 29.85 841 24.83 -0.6 30.9 41 -12.2 10.1
06:10 1011 29.85 841 24.83 -1 30.3 42 -12.5 9.5
06:15 1011 29.85 841 24.83 -1.2 29.8 42 -12.4 9.7
06:20 1011 29.85 840 24.81 -1.7 29 44 -12.4 9.6
06:25 1011 29.85 840 24.81 -1.8 28.7 45 -12.3 9.9
06:30 1011 29.85 840 24.81 -2.1 28.2 46 -12.3 9.8
06:35 1011 29.85 841 24.83 -2.1 28.2 47 -12 10.4
06:40 1011 29.85 841 24.83 -2.2 28 47 -12.2 10.1
06:45 1011 29.85 841 24.83 -2.2 28 48 -11.9 10.6
06:50 1011 29.85 841 24.83 -2.3 27.9 48 -11.9 10.6
06:55 1011 29.85 841 24.83 -1.8 28.8 43 -12.7 9.1
07:00 1011 29.85 840 24.81 -1.8 28.7 44 -12.5 9.4
07:05 1011 29.85 840 24.81 -2.1 28.2 45 -12.5 9.5
07:10 1011 29.85 840 24.81 -2.3 27.8 46 -12.4 9.7
07:15 1011 29.85 840 24.81 -2.5 27.5 47 -12.4 9.6
07:20 1011 29.85 840 24.81 -2.4 27.8 43 -13.3 8.1
07:25 1011 29.85 840 24.81 -1.3 29.7 40 -13.2 8.2
07:30 1011 29.85 840 24.81 -1.4 29.5 43 -12.5 9.4
07:35 1011 29.85 840 24.81 -2 28.4 45 -12.5 9.5
07:40 1011 29.85 840 24.81 -2.5 27.4 46 -12.5 9.4
07:45 1011 29.85 840 24.81 -2.7 27.2 45 -12.9 8.7
07:50 1011 29.85 840 24.81 -2.6 27.4 45 -12.8 8.9
07:55 1011 29.85 840 24.81 -2.7 27.2 46 -12.8 9
08:00 1011 29.85 840 24.81 -2.7 27.1 46 -12.8 9
08:05 1011 29.85 840 24.81 -2.8 27 46 -12.9 8.8
08:10 1011 29.85 840 24.81 -2.7 27.1 46 -12.9 8.9
08:15 1011 29.85 840 24.81 -2.9 26.9 47 -12.7 9.2
08:20 1011 29.85 840 24.81 -3 26.6 47 -12.8 9
08:25 1011 29.85 840 24.81 -2.8 27 47 -12.6 9.4
08:30 1011 29.85 840 24.81 -2.7 27.2 46 -12.7 9.1
08:35 1011 29.85 840 24.81 -2.5 27.6 44 -13 8.6
08:40 1011 29.85 840 24.81 -2.3 27.8 45 -12.8 8.9
08:45 1011 29.85 840 24.81 -2.3 27.8 45 -12.6 9.2
08:50 1011 29.85 840 24.81 -2.1 28.2 45 -12.5 9.4
08:55 1011 29.85 840 24.81 -1.6 29.1 44 -12.5 9.6
09:00 1011 29.85 840 24.81 -1.1 30 43 -12.2 10.1
09:05 1011 29.85 840 24.81 -1 30.2 41 -12.6 9.4
09:10 1011 29.85 840 24.81 -0.2 31.7 37 -13.1 8.4
09:15 1011 29.85 840 24.81 0.2 32.3 37 -12.9 8.8
09:20 1011 29.85 840 24.81 0.3 32.5 38 -12.4 9.7
09:25 1011 29.85 840 24.81 0.1 32.2 39 -12.1 10.2
09:30 1010 29.83 840 24.81 0.1 32.2 40 -11.9 10.6
09:35 1010 29.83 840 24.81 0.4 32.6 40 -11.9 10.6
09:40 1010 29.83 840 24.81 0.9 33.7 37 -12.1 10.3
09:45 1010 29.83 840 24.81 1.2 34.2 37 -12 10.5
09:50 1010 29.83 840 24.81 1.5 34.7 34 -12.6 9.3
09:55 1010 29.83 840 24.81 1.8 35.3 37 -11.3 11.7
10:00 1010 29.83 840 24.81 1.3 34.3 35 -12.5 9.5
10:05 1010 29.83 840 24.81 1.8 35.3 36 -11.7 11
10:10 1010 29.83 840 24.81 1.9 35.5 38 -11 12.2
10:15 1010 29.83 840 24.81 2 35.6 36 -11.7 11
10:20 1010 29.83 840 24.81 2.5 36.5 34 -11.8 10.8
10:25 1010 29.83 840 24.81 2.8 37 31 -12.6 9.3
10:30 1010 29.83 840 24.81 3.9 39 32 -11.2 11.8
10:35 1010 29.83 840 24.81 4.8 40.6 28 -12.4 9.7
10:40 1010 29.83 840 24.81 5.1 41.2 29 -11.7 10.9
10:45 1010 29.83 839 24.78 4.8 40.7 29 -11.7 10.9
10:50 1010 29.83 839 24.78 4.7 40.5 28 -12.5 9.4
10:55 1010 29.83 839 24.78 5.1 41.1 28 -12.1 10.3
11:00 1010 29.83 839 24.78 4.8 40.7 30 -11.5 11.2
11:05 1010 29.83 839 24.78 4.9 40.9 31 -11 12.1
11:10 1010 29.83 839 24.78 4.7 40.5 31 -11.2 11.9
11:15 1010 29.83 839 24.78 4.7 40.5 30 -11.5 11.4
11:20 1010 29.83 839 24.78 5.7 42.3 30 -10.5 13.2
11:25 1010 29.83 839 24.78 5.6 42.1 28 -11.4 11.6
11:30 1010 29.83 839 24.78 4.9 40.8 30 -11.5 11.3
11:35 1010 29.83 839 24.78 4.4 40 31 -11.5 11.4
11:40 1010 29.83 839 24.78 5.7 42.2 27 -11.7 10.9
11:45 1010 29.83 839 24.78 6.7 44.1 28 -10.5 13.1
11:50 1010 29.83 839 24.78 7.6 45.7 27 -10.3 13.4
11:55 1009 29.8 839 24.78 7.6 45.8 27 -10 14
12:00 1009 29.8 839 24.78 7 44.7 30 -9.2 15.4
12:05 1009 29.8 838 24.75 7.6 45.7 29 -9.4 15
12:10 1009 29.8 838 24.75 8.2 46.7 28 -9.4 15
12:15 1009 29.8 838 24.75 8.5 47.2 27 -9.5 14.8
12:20 1009 29.8 838 24.75 7.7 45.9 28 -9.9 14.2
12:25 1009 29.8 838 24.75 7.7 45.8 30 -9 15.8
12:30 1009 29.8 838 24.75 8.3 46.9 27 -9.7 14.5
12:35 1009 29.8 838 24.75 8 46.5 28 -9.3 15.3
12:40 1009 29.8 838 24.75 7.5 45.6 27 -10.2 13.6
12:45 1009 29.8 838 24.75 7.5 45.5 27 -10.6 13
12:50 1009 29.8 838 24.75 8.7 47.7 25 -10.4 13.2
12:55 1009 29.8 838 24.75 8.4 47.1 26 -10.1 13.8
13:00 1009 29.8 838 24.75 8.3 46.9 23 -11.9 10.7
13:05 1009 29.8 838 24.75 8.6 47.4 21 -12.4 9.7
13:10 1008 29.77 838 24.75 9.1 48.4 22 -11.7 11
13:15 1008 29.77 838 24.75 10.5 50.8 21 -11.1 12
13:20 1008 29.77 838 24.75 11 51.7 18 -12.5 9.6
13:25 1008 29.77 837 24.72 10.5 50.9 23 -9.9 14.1
13:30 1008 29.77 837 24.72 9.8 49.7 28 -8 17.5
13:35 1008 29.77 837 24.72 9.3 48.7 26 -9.1 15.7
13:40 1008 29.77 837 24.72 9.1 48.3 24 -10.3 13.5
13:45 1008 29.77 837 24.72 9.8 49.6 26 -8.9 16
13:50 1008 29.77 837 24.72 10 50.1 25 -9.3 15.3
13:55 1008 29.77 837 24.72 10.3 50.6 27 -8 17.6
14:00 1008 29.77 837 24.72 9.7 49.4 30 -7.1 19.2
14:05 1008 29.77 837 24.72 8.7 47.6 31 -7.4 18.7
14:10 1008 29.77 837 24.72 8.5 47.2 32 -7.3 18.9
14:15 1008 29.77 837 24.72 8.4 47.1 31 -7.8 18
14:20 1007 29.74 837 24.72 9.5 49.1 31 -6.6 20.1
14:25 1007 29.74 837 24.72 9.5 49.2 30 -7.1 19.3
14:30 1007 29.74 837 24.72 9.6 49.2 30 -7.3 18.9
14:35 1007 29.74 836 24.69 10.1 50.2 30 -6.6 20.1
14:40 1007 29.74 836 24.69 9.2 48.6 29 -7.9 17.8
14:45 1007 29.74 836 24.69 9.6 49.3 28 -8.1 17.5
14:50 1007 29.74 836 24.69 10 50 29 -7 19.3
14:55 1007 29.74 836 24.69 9.7 49.4 29 -7.4 18.7
15:00 1007 29.74 836 24.69 9.4 49 27 -8.5 16.7
15:05 1007 29.74 836 24.69 9.7 49.5 23 -10.3 13.4
15:10 1006 29.71 836 24.69 10.2 50.3 24 -9.3 15.3
15:15 1006 29.71 836 24.69 10.2 50.3 23 -10.1 13.9
15:20 1006 29.71 835 24.66 10.7 51.2 23 -9.5 14.9
15:25 1006 29.71 835 24.66 10.2 50.3 24 -9.8 14.4
15:30 1006 29.71 835 24.66 10.1 50.2 24 -9.7 14.5
15:35 1006 29.71 835 24.66 9.5 49.1 25 -9.8 14.4
15:40 1006 29.71 835 24.66 10.2 50.4 24 -9.2 15.4
15:45 1006 29.71 835 24.66 10.6 51 23 -9.9 14.2
15:50 1006 29.71 835 24.66 10.4 50.8 20 -11.4 11.5
15:55 1006 29.71 835 24.66 10.1 50.2 24 -9.8 14.3
16:00 1006 29.71 835 24.66 10.2 50.3 27 -7.8 18
16:05 1006 29.71 835 24.66 9.8 49.7 29 -7.4 18.7
16:10 1006 29.71 835 24.66 9.7 49.5 26 -9.1 15.7
16:15 1006 29.71 835 24.66 10.3 50.5 28 -7.4 18.6
16:20 1006 29.71 835 24.66 9.9 49.9 27 -8.1 17.5
16:25 1006 29.71 835 24.66 9.6 49.4 27 -8.4 16.8
16:30 1006 29.71 835 24.66 9.5 49.1 26 -9.3 15.3
16:35 1006 29.71 835 24.66 9.9 49.8 25 -9 15.8
16:40 1006 29.71 835 24.66 9.3 48.7 24 -10.1 13.8
16:45 1006 29.71 835 24.66 8.4 47.1 26 -10.1 13.8
16:50 1006 29.71 835 24.66 9 48.2 25 -10 13.9
16:55 1006 29.71 835 24.66 9 48.2 27 -9 15.7
17:00 1006 29.71 835 24.66 9.1 48.4 25 -10 14
17:05 1006 29.71 835 24.66 8.8 47.9 26 -9.7 14.6
17:10 1006 29.71 835 24.66 8.7 47.7 26 -9.6 14.7
17:15 1006 29.71 835 24.66 8.8 47.9 24 -10.5 13.1
17:20 1006 29.71 835 24.66 8.2 46.8 26 -10.4 13.3
17:25 1005 29.68 835 24.66 8.2 46.7 26 -10.4 13.2
17:30 1006 29.71 835 24.66 8.5 47.2 25 -10.4 13.3
17:35 1006 29.71 835 24.66 8.8 47.8 25 -10.4 13.3
17:40 1005 29.68 835 24.66 8.3 46.9 25 -10.7 12.8
17:45 1005 29.68 835 24.66 8 46.4 25 -11 12.2
17:50 1005 29.68 835 24.66 8 46.3 26 -10.6 12.9
17:55 1005 29.68 835 24.66 7.9 46.2 26 -10.5 13.2
18:00 1005 29.68 835 24.66 8.1 46.5 28 -9.5 14.8
18:05 1005 29.68 835 24.66 8.4 47.1 27 -9.8 14.4
18:10 1005 29.68 835 24.66 8.3 47 26 -9.9 14.2
18:15 1005 29.68 835 24.66 8.1 46.6 27 -9.5 14.8
18:20 1006 29.71 835 24.66 7.9 46.2 29 -9.1 15.6
18:25 1006 29.71 835 24.66 8.4 47 26 -9.9 14.2
18:30 1006 29.71 835 24.66 8.6 47.4 27 -9.6 14.8
18:35 1006 29.71 835 24.66 8.7 47.6 25 -10.4 13.3
18:40 1005 29.68 835 24.66 8.5 47.3 29 -8.6 16.6
18:45 1005 29.68 835 24.66 8.3 47 19 -14 6.7
18:50 1005 29.68 835 24.66 8.3 47 29 -8.7 16.3
18:55 1005 29.68 835 24.66 7.3 45.1 31 -8.7 16.3
19:00 1005 29.68 835 24.66 7 44.6 30 -9.4 15.1
19:05 1005 29.68 835 24.66 7.1 44.8 30 -9.4 15.1
19:10 1005 29.68 835 24.66 6.7 44.1 30 -9.8 14.4
19:15 1005 29.68 834 24.63 6.8 44.2 29 -10 14
19:20 1005 29.68 835 24.66 7.4 45.4 26 -11 12.3
19:25 1005 29.68 835 24.66 7.5 45.5 26 -10.9 12.4
19:30 1005 29.68 835 24.66 7.3 45.2 25 -11.2 11.8
19:35 1005 29.68 834 24.63 7.4 45.3 24 -11.8 10.8
19:40 1005 29.68 834 24.63 7.4 45.3 24 -12.1 10.2
19:45 1005 29.68 834 24.63 7.3 45.1 25 -11.6 11
19:50 1005 29.68 834 24.63 7.1 44.8 25 -11.4 11.4
19:55 1005 29.68 834 24.63 6.9 44.4 25 -12 10.5
20:00 1005 29.68 834 24.63 6.9 44.4 24 -12.6 9.4
20:05 1005 29.68 834 24.63 6.9 44.4 25 -11.9 10.5
20:10 1005 29.68 834 24.63 6.9 44.4 25 -11.9 10.6
20:15 1005 29.68 834 24.63 6.9 44.4 25 -12 10.3
20:20 1005 29.68 835 24.66 6.7 44 27 -10.9 12.3
20:25 1005 29.68 835 24.66 6.6 43.9 25 -12 10.4
20:30 1005 29.68 835 24.66 6.7 44 26 -11.7 11
20:35 1005 29.68 835 24.66 6.6 43.8 26 -11.4 11.5
20:40 1005 29.68 835 24.66 6.5 43.6 28 -10.8 12.6
20:45 1005 29.68 835 24.66 6.2 43.2 26 -12.1 10.2
20:50 1005 29.68 835 24.66 6.2 43.1 30 -10.1 13.8
20:55 1006 29.71 835 24.66 5.8 42.4 29 -10.8 12.6
21:00 1006 29.71 835 24.66 6.2 43.1 25 -12.6 9.4
21:05 1006 29.71 835 24.66 6.5 43.7 27 -11.2 11.9
21:10 1006 29.71 835 24.66 6.5 43.8 26 -11.5 11.4
21:15 1006 29.71 835 24.66 6.4 43.4 27 -11.2 11.9
21:20 1006 29.71 835 24.66 6.3 43.4 29 -10.7 12.8
21:25 1006 29.71 835 24.66 6.2 43.1 27 -11.3 11.7
21:30 1006 29.71 835 24.66 6.2 43.2 30 -10 13.9
21:35 1006 29.71 835 24.66 5.6 42.1 31 -10 14
21:40 1006 29.71 835 24.66 5.4 41.7 32 -10 14.1
21:45 1006 29.71 835 24.66 5.3 41.6 30 -10.9 12.4
21:50 1006 29.71 835 24.66 5.6 42.1 30 -10.4 13.2
21:55 1006 29.71 835 24.66 5.8 42.4 27 -11.9 10.6
22:00 1006 29.71 835 24.66 6.1 42.9 29 -10.8 12.5
22:05 1006 29.71 835 24.66 5.8 42.5 31 -10.1 13.9
22:10 1006 29.71 835 24.66 5.6 42.1 30 -10.7 12.8
22:15 1006 29.71 835 24.66 5.4 41.7 30 -10.8 12.6
22:20 1006 29.71 835 24.66 5.4 41.7 28 -11.6 11.1
22:25 1006 29.71 835 24.66 5.6 42.1 29 -11.2 11.9
22:30 1006 29.71 835 24.66 5.6 42.1 29 -11.2 11.8
22:35 1006 29.71 835 24.66 5.5 41.8 29 -11.3 11.7
22:40 1006 29.71 835 24.66 5.5 41.9 30 -10.6 12.9
22:45 1006 29.71 835 24.66 5.5 41.8 29 -11.4 11.4
22:50 1006 29.71 835 24.66 5.5 41.9 29 -11 12.2
22:55 1006 29.71 835 24.66 5.5 41.9 29 -11.3 11.7
23:00 1006 29.71 835 24.66 5.5 41.9 31 -10.6 13
23:05 1006 29.71 835 24.66 5.4 41.7 31 -10.5 13
23:10 1006 29.71 835 24.66 5.4 41.6 31 -10.4 13.3
23:15 1006 29.71 835 24.66 5.3 41.6 33 -9.9 14.3
23:20 1006 29.71 835 24.66 5.2 41.4 32 -10.2 13.6
23:25 1006 29.71 835 24.66 5.3 41.5 32 -10.3 13.4
23:30 1006 29.71 835 24.66 5.3 41.6 32 -10.1 13.8
23:35 1006 29.71 835 24.66 5.3 41.6 30 -10.9 12.4
23:40 1006 29.71 835 24.66 5.1 41.1 29 -11.4 11.4
23:45 1006 29.71 835 24.66 5.2 41.3 32 -10.1 13.8
23:50 1006 29.71 835 24.66 4.9 40.9 31 -10.6 12.9
23:55 1006 29.71 835 24.66 4.9 40.8 30 -11.4 11.4
24:00 1006 29.71 835 24.66 5 41.1 29 -11.6 11.1